Terminal Aerodrome Forecast
Issued by NWS

Home | Current Version | Previous Version | Text Only | Print | Product List | Glossary On
Versions: 1 2 3 4 5 6 7 8 9 10 11 12 13 14 15 16 17
000
FTUS43 KOAX 282338
TAFBFF
TAF
KBFF 282338Z 2900/2924 04010KT 1SM -SN OVC015
     FM290300 02009KT 3SM -SN OVC020
     FM290500 03007KT P6SM OVC035
     FM290900 02007KT P6SM OVC050
     FM291700 02011KT P6SM BKN070=

USA.gov is the U.S. government's official web portal to all federal, state and local government web resources and services.